Aviation Digital Data Service (ADDS)

Output produced by METARs form (2207 UTC 24 March 2019)
found at http://www.aviationweather.gov/metar/data/
 
EPZG 242200Z 00000KT CAVOK 02/M00 Q1018
TAF EPZG 242030Z 2421/2506 33004KT CAVOK 
     TEMPO 2421/2506 3000 BR BKN012
       
EPKK 242200Z 35008KT 9999 -RA FEW020 BKN046 07/02 Q1017
TAF EPKK 242030Z 2421/2521 VRB02KT 9999 BKN040 
     TEMPO 2421/2507 4000 RA BR BKN012 OVC023 
     BECMG 2507/2510 28012KT 
     TEMPO 2507/2521 4000 SHRA BKN014CB 
     PROB40 
     TEMPO 2511/2517 30020G30KT 2000 TSGS BKN007 BKN014CB
       
EPSC 242200Z 12003KT 9999 FEW045 M01/M02 Q1017
TAF EPSC 241730Z 2418/2518 27003KT CAVOK 
     BECMG 2506/2508 22010KT 4400 RA BKN006 BKN012 
     TEMPO 2506/2510 2000 SHRASN BR BKN003 BKN010CB 
     BECMG 2512/2514 33015KT 9999 NSW SCT030 
     TEMPO 2512/2518 33020G31KT SHRA BKN020CB
       
EPRZ 242200Z VRB02KT CAVOK 04/M00 Q1015
TAF EPRZ 241730Z 2418/2518 VRB02KT CAVOK 
     BECMG 2421/2424 4000 BR BKN013 OVC030 
     TEMPO 2500/2514 2500 RA BR BKN007 OVC013 
     BECMG 2514/2516 33013KT 3500 SHRA BKN009CB
       
TAF EPKS 242000Z 2421/2506 30006KT CAVOK
       
EPPO 242200Z 27002KT CAVOK 01/M02 Q1017
TAF EPPO 241730Z 2418/2518 32004KT CAVOK 
     BECMG 2505/2507 24014KT BKN014 
     TEMPO 2507/2515 4000 RA BR BKN009 
     BECMG 2515/2517 32012KT
       
EPLL 242200Z 20002KT CAVOK 05/M02 Q1016
TAF EPLL 241730Z 2418/2518 29004KT CAVOK 
     TEMPO 2509/2518 -SHRA BKN015CB 
     PROB40 
     TEMPO 2512/2518 VRB15G25KT 3000 TSRASN BKN005 BKN010CB
       
EPWA 242200Z 26004KT CAVOK 04/M01 Q1016 NOSIG
TAF EPWA 242030Z 2421/2521 29004KT CAVOK 
     TEMPO 2510/2518 -SHRA BKN015CB 
     PROB40 
     TEMPO 2512/2521 3000 RASN BKN005 BKN010CB
       
EPKT 242200Z 32002KT 9999 OVC042 05/03 Q1016
TAF EPKT 241730Z 2418/2518 VRB02KT CAVOK 
     BECMG 2419/2422 4000 BR BKN013 OVC030 
     TEMPO 2422/2512 2500 RA BR BKN007 OVC013 
     BECMG 2512/2515 33013KT 3500 SHRA BKN009CB
       
EPGD 242200Z 25007KT CAVOK 02/M01 Q1015
TAF EPGD 241730Z 2418/2518 28008KT CAVOK 
     PROB40 2500/2505 BKN005 
     TEMPO 2509/2518 SHRA BKN015CB 
     BECMG 2512/2514 01010KT
       
EPWR 242200Z 28009KT 9999 FEW047 08/03 Q1018
TAF EPWR 242030Z 2421/2521 28008KT 9999 BKN040 
     BECMG 2508/2511 29015G25KT BKN014 
     TEMPO 2511/2521 4000 SHRA SHGS BR BKN007 BKN012CB 
     PROB40 
     TEMPO 2511/2516 30022G36KT 2000 TSRA TSGS BKN008CB 
     BECMG 2516/2518 30012KT
       
TAF EPSN 242000Z 2421/2506 20004KT CAVOK
       
EPBY 242200Z 23002KT CAVOK 01/M02 Q1017
TAF EPBY 241730Z 2418/2518 VRB02KT CAVOK 
     PROB40 2500/2505 4000 BR BKN005 
     BECMG 2506/2508 22010KT 
     TEMPO 2509/2518 SHRA BKN015CB
       
EPSY 241900Z VRB01KT CAVOK 03/M00 Q1018
TAF EPSY 241730Z 2418/2503 VRB02KT CAVOK